Fortunate — 3FLG6 — position and weather

sailwx.info

Track history (hours):
 
Tides and Currents Weather Stations Pressure Air Temp Water Temp Dewpoint Dewpoint Depression Visibility Wind Speed Wind Dir Waves Ship Positions

Fortunate

Last reported at 2017-Dec-22 06:25 UTC. Time now 2018-Apr-22 14:42 UTC.
Position N 01°22' E 103°17'.
Warning: this ship's position is months out of date.

Length 274 m; draft 8.2 m.

Type: Cargo ship. MMSI: 356708000.

Date/timePositionNaut miles runAvg speedWind from/ knotsBaromVisibWave heightAir tempDewpointWater temp
2017-Dec-22 06:25N 01°22' E 103°17'711.8
2017-Dec-22 05:52N 01°18' E 103°21'411.6
2017-Dec-22 05:30N 01°15' E 103°25'611.6
2017-Dec-22 05:00N 01°14' E 103°30'4 9.0
2017-Dec-22 04:30N 01°17' E 103°33'3 4.6
2017-Dec-22 03:51N 01°20' E 103°33'0 0.0
2017-Dec-22 03:30N 01°20' E 103°33'0 0.0
2017-Dec-22 02:54N 01°20' E 103°33'0 0.0
2017-Dec-22 02:30N 01°20' E 103°33'0 0.0
2017-Dec-22 01:54N 01°20' E 103°33'0 0.0
2017-Dec-22 01:24N 01°20' E 103°33'0 0.0
2017-Dec-22 00:57N 01°20' E 103°33'0 0.0
2017-Dec-21 23:45N 01°20' E 103°33'0 0.0
2017-Dec-21 23:30N 01°20' E 103°33'0 0.0
2017-Dec-21 22:54N 01°20' E 103°33'0 0.0
2017-Dec-21 21:45N 01°20' E 103°33'0 0.0
2017-Dec-21 21:21N 01°20' E 103°33'0 0.0
2017-Dec-21 20:57N 01°20' E 103°33'0 0.0
2017-Dec-21 20:09N 01°20' E 103°33'0 0.0
2017-Dec-21 19:54N 01°20' E 103°33'0 0.2
2017-Dec-21 19:27N 01°20' E 103°33'0 0.1
2017-Dec-21 18:41N 01°20' E 103°33'0 0.0
2017-Dec-21 18:14N 01°20' E 103°33'0 0.0
2017-Dec-21 17:59N 01°20' E 103°33'0 0.0
2017-Dec-21 17:08N 01°20' E 103°33'0 0.0
2017-Dec-21 16:38N 01°20' E 103°33'0 0.0
2017-Dec-21 16:20N 01°20' E 103°33'0 0.0
2017-Dec-21 15:56N 01°20' E 103°33'0 0.0
2017-Dec-21 15:02N 01°20' E 103°33'0 0.0
2017-Dec-21 14:32N 01°20' E 103°33'0 0.0
2017-Dec-21 14:20N 01°20' E 103°33'0 0.0
2017-Dec-21 13:56N 01°20' E 103°33'0 0.0
2017-Dec-21 12:56N 01°20' E 103°33'0 0.2
2017-Dec-21 12:30N 01°20' E 103°33'2 3.7
2017-Dec-21 12:01N 01°18' E 103°33'510.3
2017-Dec-21 11:30N 01°13' E 103°32'0 0.7
2017-Dec-21 11:00N 01°14' E 103°31'2 4.8
2017-Dec-21 10:31N 01°14' E 103°29'4 8.5
2017-Dec-21 10:01N 01°13' E 103°33'4 7.8
2017-Dec-21 09:30N 01°12' E 103°37'3 6.8
2017-Dec-21 09:01N 01°12' E 103°40'5 9.8
2017-Dec-21 08:30N 01°15' E 103°44'2 2.4
2017-Dec-21 07:47N 01°17' E 103°45'0 0.0
2017-Dec-21 07:26N 01°17' E 103°45'0 0.0
2017-Dec-21 06:59N 01°17' E 103°45'0 0.0
2017-Dec-21 06:29N 01°17' E 103°45'0 0.0
2017-Dec-21 05:59N 01°17' E 103°45'0 0.0
2017-Dec-21 05:26N 01°17' E 103°45'0 0.0
2017-Dec-21 04:59N 01°17' E 103°45'0 0.0
2017-Dec-21 04:29N 01°17' E 103°45'0 0.0
2017-Dec-21 03:56N 01°17' E 103°45'0 0.0
2017-Dec-21 03:26N 01°17' E 103°45'0 0.0
2017-Dec-21 02:59N 01°17' E 103°45'0 0.0
2017-Dec-21 02:29N 01°17' E 103°45'0 0.0
2017-Dec-21 01:59N 01°17' E 103°45'0 0.0
2017-Dec-21 01:29N 01°17' E 103°45'0 0.0
2017-Dec-21 00:56N 01°17' E 103°45'0 0.0
2017-Dec-21 00:29N 01°17' E 103°45'0 0.0
2017-Dec-20 23:56N 01°17' E 103°45'0 0.0
2017-Dec-20 23:29N 01°17' E 103°45'0 0.0
2017-Dec-20 22:59N 01°17' E 103°45'0 0.0
2017-Dec-20 22:26N 01°17' E 103°45'0 0.0
2017-Dec-20 21:59N 01°17' E 103°45'0 0.0
2017-Dec-20 21:29N 01°17' E 103°45'0 0.0
2017-Dec-20 20:59N 01°17' E 103°45'0 0.0
2017-Dec-20 20:29N 01°17' E 103°45'0 0.0
2017-Dec-20 19:59N 01°17' E 103°45'0 0.0
2017-Dec-20 19:29N 01°17' E 103°45'0 0.0
2017-Dec-20 18:59N 01°17' E 103°45'0 0.0
2017-Dec-20 18:23N 01°17' E 103°45'0 0.0
2017-Dec-20 17:56N 01°17' E 103°45'0 0.0
2017-Dec-20 17:29N 01°17' E 103°45'0 0.0
2017-Dec-20 16:56N 01°17' E 103°45'0 0.0
2017-Dec-20 16:29N 01°17' E 103°45'0 0.1
2017-Dec-20 16:00N 01°17' E 103°45'1 2.6
2017-Dec-20 15:30N 01°16' E 103°46'5 9.8
2017-Dec-20 15:00N 01°12' E 103°50'4 8.4
2017-Dec-20 14:30N 01°14' E 103°54'4 7.3
2017-Dec-20 14:01N 01°15' E 103°57'5 9.9
2017-Dec-20 13:30N 01°15' E 104°02'  
Track history (hours):
 
Tides and Currents Weather Stations Pressure Air Temp Water Temp Dewpoint Dewpoint Depression Visibility Wind Speed Wind Dir Waves Ship Positions

Fortunate

Last reported at 2017-Dec-22 06:25 UTC. Time now 2018-Apr-22 14:42 UTC.
Position N 01°22' E 103°17'.
Warning: this ship's position is months out of date.

Length 274 m; draft 8.2 m.

Type: Cargo ship. MMSI: 356708000.

Date/timePositionNaut miles runAvg speedWind from/ knotsBaromVisibWave heightAir tempDewpointWater temp
2017-Dec-22 06:25N 01°22' E 103°17'711.8
2017-Dec-22 05:52N 01°18' E 103°21'411.6
2017-Dec-22 05:30N 01°15' E 103°25'611.6
2017-Dec-22 05:00N 01°14' E 103°30'4 9.0
2017-Dec-22 04:30N 01°17' E 103°33'3 4.6
2017-Dec-22 03:51N 01°20' E 103°33'0 0.0
2017-Dec-22 03:30N 01°20' E 103°33'0 0.0
2017-Dec-22 02:54N 01°20' E 103°33'0 0.0
2017-Dec-22 02:30N 01°20' E 103°33'0 0.0
2017-Dec-22 01:54N 01°20' E 103°33'0 0.0
2017-Dec-22 01:24N 01°20' E 103°33'0 0.0
2017-Dec-22 00:57N 01°20' E 103°33'0 0.0
2017-Dec-21 23:45N 01°20' E 103°33'0 0.0
2017-Dec-21 23:30N 01°20' E 103°33'0 0.0
2017-Dec-21 22:54N 01°20' E 103°33'0 0.0
2017-Dec-21 21:45N 01°20' E 103°33'0 0.0
2017-Dec-21 21:21N 01°20' E 103°33'0 0.0
2017-Dec-21 20:57N 01°20' E 103°33'0 0.0
2017-Dec-21 20:09N 01°20' E 103°33'0 0.0
2017-Dec-21 19:54N 01°20' E 103°33'0 0.2
2017-Dec-21 19:27N 01°20' E 103°33'0 0.1
2017-Dec-21 18:41N 01°20' E 103°33'0 0.0
2017-Dec-21 18:14N 01°20' E 103°33'0 0.0
2017-Dec-21 17:59N 01°20' E 103°33'0 0.0
2017-Dec-21 17:08N 01°20' E 103°33'0 0.0
2017-Dec-21 16:38N 01°20' E 103°33'0 0.0
2017-Dec-21 16:20N 01°20' E 103°33'0 0.0
2017-Dec-21 15:56N 01°20' E 103°33'0 0.0
2017-Dec-21 15:02N 01°20' E 103°33'0 0.0
2017-Dec-21 14:32N 01°20' E 103°33'0 0.0
2017-Dec-21 14:20N 01°20' E 103°33'0 0.0
2017-Dec-21 13:56N 01°20' E 103°33'0 0.0
2017-Dec-21 12:56N 01°20' E 103°33'0 0.2
2017-Dec-21 12:30N 01°20' E 103°33'2 3.7
2017-Dec-21 12:01N 01°18' E 103°33'510.3
2017-Dec-21 11:30N 01°13' E 103°32'0 0.7
2017-Dec-21 11:00N 01°14' E 103°31'2 4.8
2017-Dec-21 10:31N 01°14' E 103°29'4 8.5
2017-Dec-21 10:01N 01°13' E 103°33'4 7.8
2017-Dec-21 09:30N 01°12' E 103°37'3 6.8
2017-Dec-21 09:01N 01°12' E 103°40'5 9.8
2017-Dec-21 08:30N 01°15' E 103°44'2 2.4
2017-Dec-21 07:47N 01°17' E 103°45'0 0.0
2017-Dec-21 07:26N 01°17' E 103°45'0 0.0
2017-Dec-21 06:59N 01°17' E 103°45'0 0.0
2017-Dec-21 06:29N 01°17' E 103°45'0 0.0
2017-Dec-21 05:59N 01°17' E 103°45'0 0.0
2017-Dec-21 05:26N 01°17' E 103°45'0 0.0
2017-Dec-21 04:59N 01°17' E 103°45'0 0.0
2017-Dec-21 04:29N 01°17' E 103°45'0 0.0
2017-Dec-21 03:56N 01°17' E 103°45'0 0.0
2017-Dec-21 03:26N 01°17' E 103°45'0 0.0
2017-Dec-21 02:59N 01°17' E 103°45'0 0.0
2017-Dec-21 02:29N 01°17' E 103°45'0 0.0
2017-Dec-21 01:59N 01°17' E 103°45'0 0.0
2017-Dec-21 01:29N 01°17' E 103°45'0 0.0
2017-Dec-21 00:56N 01°17' E 103°45'0 0.0
2017-Dec-21 00:29N 01°17' E 103°45'0 0.0
2017-Dec-20 23:56N 01°17' E 103°45'0 0.0
2017-Dec-20 23:29N 01°17' E 103°45'0 0.0
2017-Dec-20 22:59N 01°17' E 103°45'0 0.0
2017-Dec-20 22:26N 01°17' E 103°45'0 0.0
2017-Dec-20 21:59N 01°17' E 103°45'0 0.0
2017-Dec-20 21:29N 01°17' E 103°45'0 0.0
2017-Dec-20 20:59N 01°17' E 103°45'0 0.0
2017-Dec-20 20:29N 01°17' E 103°45'0 0.0
2017-Dec-20 19:59N 01°17' E 103°45'0 0.0
2017-Dec-20 19:29N 01°17' E 103°45'0 0.0
2017-Dec-20 18:59N 01°17' E 103°45'0 0.0
2017-Dec-20 18:23N 01°17' E 103°45'0 0.0
2017-Dec-20 17:56N 01°17' E 103°45'0 0.0
2017-Dec-20 17:29N 01°17' E 103°45'0 0.0
2017-Dec-20 16:56N 01°17' E 103°45'0 0.0
2017-Dec-20 16:29N 01°17' E 103°45'0 0.1
2017-Dec-20 16:00N 01°17' E 103°45'1 2.6
2017-Dec-20 15:30N 01°16' E 103°46'5 9.8
2017-Dec-20 15:00N 01°12' E 103°50'4 8.4
2017-Dec-20 14:30N 01°14' E 103°54'4 7.3
2017-Dec-20 14:01N 01°15' E 103°57'5 9.9
2017-Dec-20 13:30N 01°15' E 104°02'  

Dump ship's entire track history